This is the latest recevied weather packets stored in our database for station/object E24TVS-1. If no packets are shown the sender has not sent any weather packets the latest 10 day(s).
| Time | Temp. | Humidity | Pressure | Rain* | Wind** | Luminosity | Snow |
|---|---|---|---|---|---|---|---|
| 1777686660 | 30° C | 69% | 991 hPa | - | - | 0 W/m² | - |
| 1777686037 | 30° C | 70% | 991 hPa | - | - | 0 W/m² | - |
| 1777685415 | 29.44° C | 73% | 991 hPa | - | - | 0 W/m² | - |
| 1777684792 | 29.44° C | 72% | 991 hPa | - | - | 0 W/m² | - |
| 1777684170 | 28.89° C | 74% | 991 hPa | - | - | 0 W/m² | - |
| 1777683547 | 28.89° C | 76% | 991 hPa | - | - | 0 W/m² | - |
| 1777682925 | 28.33° C | 78% | 991 hPa | - | - | 0 W/m² | - |
| 1777682302 | 28.33° C | 77% | 991 hPa | - | - | 0 W/m² | - |
| 1777681679 | 28.33° C | 80% | 990 hPa | - | - | 0 W/m² | - |
| 1777681056 | 27.78° C | 83% | 990 hPa | - | - | 0 W/m² | - |
| 1777680433 | 27.78° C | 84% | 990 hPa | - | - | 0 W/m² | - |
| 1777679811 | 27.22° C | 84% | 990 hPa | - | - | 0 W/m² | - |
| 1777679188 | 27.78° C | 82% | 989 hPa | - | - | 0 W/m² | - |
| 1777678565 | 27.78° C | 82% | 989 hPa | - | - | 0 W/m² | - |
| 1777677943 | 27.22° C | 83% | 989 hPa | - | - | 0 W/m² | - |
| 1777677320 | 27.78° C | 82% | 989 hPa | - | - | 0 W/m² | - |
| 1777676698 | 27.78° C | 83% | 989 hPa | - | - | 0 W/m² | - |
| 1777676075 | 27.78° C | 83% | 989 hPa | - | - | 0 W/m² | - |
| 1777675453 | 27.78° C | 83% | 989 hPa | - | - | 0 W/m² | - |
| 1777674831 | 27.78° C | 83% | 989 hPa | - | - | 0 W/m² | - |
| 1777674209 | 27.78° C | 82% | 989 hPa | - | - | 0 W/m² | - |
| 1777673585 | 27.78° C | 79% | 989 hPa | - | - | 0 W/m² | - |
| 1777672962 | 28.33° C | 73% | 989 hPa | - | - | 0 W/m² | - |
| 1777672340 | 28.89° C | 70% | 989 hPa | - | - | 0 W/m² | - |
| 1777671718 | 30° C | 67% | 989 hPa | - | - | 0 W/m² | - |
* Rain since midnight (hover to see other rain measurements)
** Current wind speed in m/s (hover to see current wind gust speed)